»·PEaware :: VRD1906 KSFO-KLAS

VRD1906 :: KSFO-KLAS

FLIGHT INFORMATION

Flight Status: Arrived
Operator:
Virgin America
More flights by this operator :: More flights under this callsign
Pilot: Anonymous 3069 (3069)
Aircraft: AIRBUS A320
(A320)
More flights by this aircraft type
Origin: KSFO San Francisco Intl
United States
Destination: KLAS McCarran Intl
United States
More flights between these airports :: More routes between these airports
Route: +SSTIK3 NTELL Q162 ESSAA BTY SUNST4
File this flight plan on PilotEdge
Remarks:
Altitude:
(Current/Filed)
39,000ft
Speed:
(Current/Filed)
425kts
Departed: 03-Jan-18 01:30 PM
Arrived: 03-Jan-18 02:42 PM
Distance/Time
Traveled:
359nm/1:12
Distance/Time
To Go:
Arrived

Flight Plot

Page will automatically refresh every two minutes.

Flight plan parsing failed; only flown route is shown


Map Options




Map Legend


Flown Route
Filed Route
Departure Airport
Arrival Airport
Navaid (VOR, NDB)
Fix

Horizontal Profiles

Position Reports

Time Latitude Longitude Heading Altitude Ground
Speed
03-Jan-18 12:56 37.616764 -122.380578 299 22ft 0kts
03-Jan-18 12:57 37.616764 -122.380578 299 22ft 0kts
03-Jan-18 12:58 37.616764 -122.380578 299 22ft 0kts
03-Jan-18 12:59 37.616764 -122.380578 299 22ft 0kts
03-Jan-18 13:00 37.616764 -122.380578 299 22ft 0kts
03-Jan-18 13:01 37.616764 -122.380578 299 22ft 0kts
03-Jan-18 13:02 37.616764 -122.380578 299 22ft 0kts
03-Jan-18 13:03 37.616764 -122.380578 299 22ft 0kts
03-Jan-18 13:04 37.616764 -122.380578 299 22ft 0kts
03-Jan-18 13:05 37.616764 -122.380578 299 22ft 0kts
03-Jan-18 13:06 37.616764 -122.380578 299 22ft 0kts
03-Jan-18 13:07 37.616764 -122.380578 299 22ft 0kts
03-Jan-18 13:12 37.617857 -122.380642 257 22ft 0kts
03-Jan-18 13:13 37.617857 -122.380642 257 22ft 0kts
03-Jan-18 13:14 37.617857 -122.380642 257 22ft 0kts
03-Jan-18 13:15 37.617857 -122.380642 257 22ft 0kts
03-Jan-18 13:16 37.617857 -122.380642 257 22ft 0kts
03-Jan-18 13:17 37.617857 -122.380642 257 22ft 0kts
03-Jan-18 13:18 37.617857 -122.380642 257 22ft 0kts
03-Jan-18 13:19 37.617857 -122.380642 257 22ft 0kts
03-Jan-18 13:20 37.617857 -122.380642 257 22ft 0kts
03-Jan-18 13:21 37.617857 -122.380642 257 22ft 0kts
03-Jan-18 13:22 37.617857 -122.380642 257 22ft 0kts
03-Jan-18 13:23 37.617857 -122.380642 257 22ft 0kts
03-Jan-18 13:24 37.617867 -122.380584 257 22ft 2kts
03-Jan-18 13:25 37.618034 -122.379954 224 22ft 2kts
03-Jan-18 13:26 37.618521 -122.379880 146 22ft 1kts
03-Jan-18 13:27 37.618564 -122.379919 145 22ft 0kts
03-Jan-18 13:28 37.618564 -122.379919 145 22ft 0kts
03-Jan-18 13:29 37.618564 -122.379919 145 22ft 0kts
03-Jan-18 13:30 37.618564 -122.379919 145 22ft 0kts
03-Jan-18 13:31 37.618395 -122.379781 148 22ft 3kts
03-Jan-18 13:32 37.616376 -122.379802 208 22ft 11kts
03-Jan-18 13:33 37.612936 -122.382075 208 22ft 16kts
03-Jan-18 13:34 37.609529 -122.384525 215 22ft 13kts
03-Jan-18 13:35 37.608113 -122.382923 96 22ft 7kts
03-Jan-18 13:36 37.626383 -122.370695 25 637ft 160kts
03-Jan-18 13:37 37.671336 -122.360887 6 3654ft 174kts
03-Jan-18 13:38 37.698489 -122.401193 240 6269ft 212kts
03-Jan-18 13:39 37.639969 -122.430451 189 8234ft 272kts
03-Jan-18 13:40 37.564435 -122.452466 189 10771ft 293kts
03-Jan-18 13:41 37.479603 -122.448905 146 12234ft 344kts
03-Jan-18 13:42 37.419371 -122.352654 124 13981ft 372kts
03-Jan-18 13:43 37.390003 -122.230593 107 15910ft 388kts
03-Jan-18 13:44 37.364901 -122.103735 108 17631ft 398kts
03-Jan-18 13:45 37.339336 -121.975954 108 19146ft 408kts
03-Jan-18 13:46 37.312483 -121.842614 108 20534ft 417kts
03-Jan-18 13:47 37.284526 -121.704667 108 21834ft 426kts
03-Jan-18 13:48 37.256219 -121.565894 108 22992ft 435kts
03-Jan-18 13:49 37.226060 -121.419023 108 24090ft 443kts
03-Jan-18 13:50 37.199995 -121.292886 109 24961ft 449kts
03-Jan-18 13:51 37.168894 -121.143355 109 25808ft 458kts
03-Jan-18 13:52 37.136524 -120.988828 109 26497ft 469kts
03-Jan-18 13:53 37.103899 -120.834007 109 27584ft 470kts
03-Jan-18 13:54 37.074488 -120.677690 97 28748ft 477kts
03-Jan-18 13:55 37.089946 -120.511800 86 29399ft 494kts
03-Jan-18 13:56 37.108635 -120.344157 86 30166ft 497kts
03-Jan-18 13:57 37.126350 -120.183261 86 30939ft 498kts
03-Jan-18 13:58 37.144023 -120.022323 86 31717ft 499kts
03-Jan-18 13:59 37.161698 -119.856986 86 32465ft 499kts
03-Jan-18 14:00 37.179343 -119.689678 86 33125ft 500kts
03-Jan-18 14:01 37.196667 -119.523253 86 33764ft 500kts
03-Jan-18 14:02 37.213959 -119.354978 86 34377ft 500kts
03-Jan-18 14:03 37.230517 -119.191643 87 34954ft 499kts
03-Jan-18 14:04 37.247396 -119.022612 87 35477ft 498kts
03-Jan-18 14:05 37.264140 -118.852292 86 35935ft 498kts
03-Jan-18 14:06 37.279785 -118.691589 86 38514ft 449kts
03-Jan-18 14:07 37.293734 -118.535956 86 38925ft 455kts
03-Jan-18 14:08 37.307978 -118.378775 86 39346ft 458kts
03-Jan-18 14:09 37.321767 -118.224688 87 39393ft 469kts
03-Jan-18 14:10 37.336144 -118.061722 87 39410ft 479kts
03-Jan-18 14:11 37.349358 -117.893819 95 39360ft 486kts
03-Jan-18 14:12 37.336017 -117.726681 101 39366ft 487kts
03-Jan-18 14:13 37.320767 -117.556884 101 39371ft 490kts
03-Jan-18 14:14 37.305333 -117.387788 101 39404ft 491kts
03-Jan-18 14:15 37.256581 -117.241665 133 39404ft 465kts
03-Jan-18 14:16 37.178435 -117.113496 133 39407ft 465kts
03-Jan-18 14:17 37.100192 -116.985508 133 39378ft 467kts
03-Jan-18 14:18 37.002802 -116.887689 157 39382ft 448kts
03-Jan-18 14:19 36.895505 -116.813302 157 39401ft 449kts
03-Jan-18 14:20 36.789035 -116.741678 168 38537ft 435kts
03-Jan-18 14:21 36.673459 -116.726283 183 36344ft 415kts
03-Jan-18 14:22 36.558848 -116.719603 182 34009ft 415kts
03-Jan-18 14:23 36.445564 -116.712915 182 32072ft 403kts
03-Jan-18 14:24 36.337072 -116.704075 171 30080ft 401kts
03-Jan-18 14:25 36.252161 -116.615304 116 28011ft 432kts
03-Jan-18 14:26 36.258016 -116.470360 72 26182ft 435kts
03-Jan-18 14:27 36.294993 -116.333030 72 24489ft 421kts
03-Jan-18 14:28 36.331198 -116.195515 72 21585ft 446kts
03-Jan-18 14:29 36.369185 -116.047419 72 18440ft 449kts
03-Jan-18 14:30 36.369965 -115.906556 87 17463ft 398kts
03-Jan-18 14:31 36.341077 -115.788976 146 16539ft 344kts
03-Jan-18 14:32 36.266566 -115.733763 114 16275ft 329kts
03-Jan-18 14:33 36.202639 -115.667341 166 16281ft 316kts
03-Jan-18 14:34 36.123584 -115.635523 144 16289ft 323kts
03-Jan-18 14:35 36.083451 -115.537660 113 16298ft 329kts
03-Jan-18 14:36 36.050078 -115.433970 113 16302ft 329kts
03-Jan-18 14:37 36.027673 -115.330692 96 15559ft 333kts
03-Jan-18 14:38 36.019633 -115.219163 95 13193ft 345kts
03-Jan-18 14:39 36.011771 -115.103830 94 8749ft 351kts
03-Jan-18 14:40 36.004980 -114.991751 93 8045ft 302kts
03-Jan-18 14:41 35.999201 -114.894559 93 7558ft 284kts
03-Jan-18 14:42 36.029190 -114.818305 10 6171ft 274kts
03-Jan-18 14:43 36.073690 -114.872931 269 5064ft 271kts
03-Jan-18 14:44 36.073967 -114.961415 270 4717ft 252kts
03-Jan-18 14:45 36.073851 -115.027704 270 3719ft 228kts
03-Jan-18 14:46 36.073726 -115.107496 270 2488ft 181kts
03-Jan-18 14:47 36.073626 -115.145492 269 2150ft 61kts
03-Jan-18 14:48 36.075413 -115.151422 331 2150ft 11kts
03-Jan-18 14:49 36.077216 -115.152474 335 2150ft 2kts
03-Jan-18 14:50 36.078694 -115.151872 47 2150ft 9kts
03-Jan-18 14:51 36.081559 -115.151222 359 2150ft 12kts
03-Jan-18 14:52 36.082279 -115.151046 13 2150ft 0kts

Navigation Log

Ident Type
Flight plan parsing failed, navigation log unavailable